Cobalt, Connecticut
Current Conditions -  °F | °C
As of 5:35 PM on Monday 24 Nov 2014 (Local Time) from KSNC Reporting Station
Overcast Overcast  
Wind Chill: 14°   Ceiling: 600
Heat Index: 14°   Visibility: 7mi
Dew Point: 14°   Wind: 16mph
Humidity: 100%   Direction: 210°SSW
Pressure: 29.66"   Gusts: 25mph
Location:  41.56°N, 72.56°W
Report Text: KSNC 242235Z AUTO 21014G22KT 7SM OVC006 14/14 A2966 RMK AO2
Loading
Personal Weather Stations






























Interactive Weather Map New forecast layout! Learn more

10-Day Weather Forecast

Advertisements
Track Severe Weather on mobile